Springfield, IL (62786)

10:06 AM CST on November 23, 2014 (GMT -0600)
Northgate Subdivision | Change Station
CLOSE
Current Station
Personal Weather Station
Location: Springfield, IL
Elevation: 590 ft
Nearby Weather Stations

Elev 590 ft 39.83 °N, 89.61 °W | Updated 4 seconds ago

Overcast
Overcast
54.0 °F
Feels Like 54.0 °F
N
1.5
Wind Variable Wind from East
Gusts 1.5 mph

Today
High -- | Low -- °F
--% Chance of Precip.
Yesterday
High -- | Low -- °F
Precip. -- in
6:52 AM 4:37 PM
New Moon, 2% visible
Pressure 29.66 in
Visibility 10.0 miles
Clouds Few 1400 ft
Few 11000 ft
Dew Point 49 °F
Humidity 84%
Rainfall 0.00 in
Snow Depth Not available.
UV 2 out of 12
Pollen .10 out of 12
Air Quality Not available.
Flu Activity Not available.
METAR KSPI 231552Z 15016KT 10SM FEW014 FEW110 12/09 A2966 RMK AO2 SLP042 T01220089

More Conditions Fewer Conditions

Pressure 29.66 in
Visibility 10.0 miles
Clouds Few 1400 ft
Few 11000 ft
Dew Point 49 °F
Humidity 84%
Rainfall 0.00 in
Snow Depth Not available.
UV 2 out of 12
Pollen .10 out of 12
Air Quality Not available.
Flu Activity Not available.
METAR KSPI 231552Z 15016KT 10SM FEW014 FEW110 12/09 A2966 RMK AO2 SLP042 T01220089

More Conditions Fewer Conditions

10-Day Weather Forecast

Almanac

Astronomy

Nov. 23, 2014 Rise Set
Actual Time
Civil Twilight
Nautical Twilight
Astronomical Twilight
Moon
Length of Visible Light
Length of Day
Tomorrow will be .
, % of the Moon is Illuminated

Today's Extremes

State Highs State Lows

Community

WunderPhotos

Upload Photos

1,773,087 photos uploaded!

WunderBlogs® & News

Nearby

Air Quality

  Air Quality AQ Index Pollutant
Not available.

Snow Depth

Station Depth Elevation

Earthquake Activity

City Distance Mag. Time & Date
Minimum magnitude displayed is 2.5.

Coastal Water Temperatures

Place Temperature

Nearby Weather Stations